Time;durP1;ratioP1;P1;durP2;ratioP2;P2;SDS_P1;SDS_P2;PMS_P1;PMS_P2;Temp;Humidity;BMP_temperature;BMP_pressure;BME280_temperature;BME280_humidity;BME280_pressure;Samples;Min_cycle;Max_cycle;Signal;HPM_P1;HPM_P2
2024/03/13 00:01:26;;;;;;;6.57;5.70;;;7.20;59.40;;;;;;4964126;28;20237;-64
2024/03/13 00:03:53;;;;;;;9.53;6.73;;;7.20;59.30;;;;;;4975924;28;20298;-65
2024/03/13 00:06:21;;;;;;;8.10;5.60;;;7.20;59.40;;;;;;4972370;28;20755;-65
2024/03/13 00:08:48;;;;;;;9.60;6.67;;;7.20;59.70;;;;;;4969799;28;20211;-66
2024/03/13 00:11:14;;;;;;;9.20;6.93;;;7.20;60.00;;;;;;4971585;28;20230;-64
2024/03/13 00:13:42;;;;;;;6.90;5.90;;;7.30;61.00;;;;;;4966330;28;20815;-65
2024/03/13 00:16:09;;;;;;;8.97;6.90;;;7.30;60.70;;;;;;4976084;28;20293;-65
2024/03/13 00:18:37;;;;;;;7.93;6.53;;;7.30;60.70;;;;;;4972981;28;20264;-65
2024/03/13 00:21:03;;;;;;;10.03;7.63;;;7.30;60.60;;;;;;4975203;28;20641;-65
2024/03/13 00:23:30;;;;;;;8.37;6.73;;;7.20;60.90;;;;;;4976212;28;20213;-66
2024/03/13 00:25:57;;;;;;;8.43;6.60;;;7.20;61.10;;;;;;4971733;28;20663;-65
2024/03/13 00:28:23;;;;;;;9.10;6.80;;;7.20;62.00;;;;;;4973248;28;20210;-65
2024/03/13 00:30:50;;;;;;;8.23;6.73;;;7.20;61.60;;;;;;4975431;28;20236;-64
2024/03/13 00:33:16;;;;;;;8.80;6.50;;;7.10;61.90;;;;;;4974950;28;20236;-66
2024/03/13 00:35:43;;;;;;;8.67;6.83;;;7.10;61.70;;;;;;4966426;28;20214;-65
2024/03/13 00:38:11;;;;;;;8.20;6.80;;;7.10;62.30;;;;;;4974473;28;20584;-64
2024/03/13 00:40:39;;;;;;;8.03;6.90;;;7.20;62.50;;;;;;4968639;28;20728;-65
2024/03/13 00:43:05;;;;;;;9.53;7.27;;;7.20;62.30;;;;;;4964604;28;20237;-64
2024/03/13 00:45:33;;;;;;;9.20;7.43;;;7.20;62.30;;;;;;4966530;28;20753;-64
2024/03/13 00:48:00;;;;;;;9.27;7.30;;;7.20;62.40;;;;;;4973824;28;20217;-64
2024/03/13 00:50:26;;;;;;;9.97;6.17;;;7.20;62.30;;;;;;4973336;28;20215;-64
2024/03/13 00:52:54;;;;;;;10.00;6.97;;;7.10;62.50;;;;;;4974537;28;20770;-64
2024/03/13 00:55:23;;;;;;;9.03;6.80;;;7.10;62.60;;;;;;4974545;28;20240;-64
2024/03/13 00:57:50;;;;;;;10.40;7.60;;;7.10;62.90;;;;;;4966934;28;20221;-65
2024/03/13 01:00:18;;;;;;;9.63;6.80;;;7.10;62.50;;;;;;4962804;28;20305;-65
2024/03/13 01:02:45;;;;;;;8.97;6.27;;;7.10;62.40;;;;;;4973454;28;20747;-65
2024/03/13 01:05:13;;;;;;;7.90;6.87;;;7.10;62.10;;;;;;4971720;28;20231;-65
2024/03/13 01:07:40;;;;;;;7.10;5.67;;;7.10;61.90;;;;;;4974148;28;20214;-64
2024/03/13 01:10:08;;;;;;;6.70;5.73;;;7.10;61.90;;;;;;4974599;28;20214;-64
2024/03/13 01:12:35;;;;;;;7.37;6.00;;;7.10;62.10;;;;;;4961006;28;20243;-65
2024/03/13 01:15:02;;;;;;;7.87;6.00;;;7.20;62.30;;;;;;4971676;28;20219;-66
2024/03/13 01:17:28;;;;;;;8.20;6.27;;;7.10;61.50;;;;;;4968477;28;20304;-64
2024/03/13 01:19:55;;;;;;;9.10;6.73;;;7.10;61.60;;;;;;4973901;28;20223;-65
2024/03/13 01:22:22;;;;;;;8.23;6.50;;;7.10;62.00;;;;;;4972167;28;20230;-65
2024/03/13 01:24:49;;;;;;;8.07;6.13;;;7.10;62.40;;;;;;4958624;28;20215;-66
2024/03/13 01:27:15;;;;;;;7.40;6.53;;;7.00;62.00;;;;;;4974397;28;20678;-65
2024/03/13 01:29:46;;;;;;;7.10;5.97;;;7.00;62.50;;;;;;4967210;28;20798;-64
2024/03/13 01:32:14;;;;;;;8.43;6.40;;;7.10;62.80;;;;;;4969963;28;20246;-65
2024/03/13 01:34:41;;;;;;;7.60;6.10;;;7.10;62.90;;;;;;4961619;28;20550;-64
2024/03/13 01:39:52;;;;;;;6.53;5.30;;;7.00;63.00;;;;;;4963075;28;20288;-65
2024/03/13 01:56:15;;;;;;;6.53;5.73;;;6.90;65.00;;;;;;4970483;28;20198;-64
2024/03/13 01:58:42;;;;;;;7.70;5.63;;;6.90;65.30;;;;;;4976750;28;20215;-64
2024/03/13 02:03:56;;;;;;;6.53;5.17;;;6.80;65.40;;;;;;4956294;28;20222;-66
2024/03/13 02:06:25;;;;;;;6.70;5.73;;;6.80;66.40;;;;;;4976591;28;20217;-65
2024/03/13 02:08:52;;;;;;;7.60;5.57;;;6.80;67.30;;;;;;4971434;28;20210;-65
2024/03/13 02:11:19;;;;;;;6.00;5.23;;;6.80;66.90;;;;;;4978185;28;20240;-65
2024/03/13 02:13:45;;;;;;;6.33;5.60;;;6.80;67.00;;;;;;4978590;28;20224;-65
2024/03/13 02:16:12;;;;;;;6.30;5.60;;;6.80;67.70;;;;;;4976544;28;20213;-64
2024/03/13 02:18:39;;;;;;;7.10;5.33;;;6.80;67.60;;;;;;4977037;28;20213;-65
2024/03/13 02:21:07;;;;;;;6.83;6.03;;;6.80;67.90;;;;;;4974017;28;20229;-65
2024/03/13 02:23:34;;;;;;;7.00;6.17;;;6.80;67.50;;;;;;4978615;28;20264;-66
2024/03/13 02:26:00;;;;;;;7.30;5.70;;;6.80;67.60;;;;;;4967738;28;20221;-65
2024/03/13 02:28:27;;;;;;;6.97;5.60;;;6.70;68.20;;;;;;4977466;28;20680;-64
2024/03/13 02:30:54;;;;;;;8.17;6.17;;;6.70;68.20;;;;;;4976392;28;21011;-64
2024/03/13 02:33:21;;;;;;;5.80;5.20;;;6.70;68.90;;;;;;4977276;28;20229;-65
2024/03/13 02:35:48;;;;;;;7.47;5.93;;;6.70;69.30;;;;;;4971519;28;20217;-64
2024/03/13 02:38:14;;;;;;;7.17;5.97;;;6.60;69.20;;;;;;4977238;28;20212;-64
2024/03/13 02:40:41;;;;;;;6.57;5.07;;;6.70;70.00;;;;;;4972693;28;20212;-65
2024/03/13 02:43:08;;;;;;;6.07;4.97;;;6.70;69.70;;;;;;4976098;28;20249;-65
2024/03/13 02:45:34;;;;;;;6.03;4.87;;;6.70;70.10;;;;;;4977108;28;20215;-64
2024/03/13 02:48:01;;;;;;;4.93;4.50;;;6.70;69.70;;;;;;4977572;28;20221;-65
2024/03/13 02:50:28;;;;;;;6.27;5.67;;;6.60;69.70;;;;;;4971303;28;20210;-65
2024/03/13 02:52:54;;;;;;;5.33;4.83;;;6.70;70.70;;;;;;4976628;28;20232;-64
2024/03/13 02:55:21;;;;;;;5.43;4.67;;;6.70;69.80;;;;;;4977426;28;20213;-65
2024/03/13 02:57:47;;;;;;;5.43;4.93;;;6.60;70.70;;;;;;4977474;28;20205;-66
2024/03/13 03:00:14;;;;;;;5.67;5.07;;;6.50;70.70;;;;;;4976907;28;20226;-65
2024/03/13 03:02:41;;;;;;;5.37;4.53;;;6.60;70.90;;;;;;4976206;28;20221;-65
2024/03/13 03:05:08;;;;;;;5.17;4.67;;;6.50;71.00;;;;;;4976869;28;20209;-65
2024/03/13 03:07:34;;;;;;;4.90;4.50;;;6.50;71.30;;;;;;4974007;28;20210;-66
2024/03/13 03:10:01;;;;;;;5.00;4.50;;;6.50;71.00;;;;;;4974520;28;20210;-66
2024/03/13 03:12:27;;;;;;;4.77;4.37;;;6.50;71.30;;;;;;4977923;28;20244;-65
2024/03/13 03:14:55;;;;;;;4.23;3.83;;;6.40;70.80;;;;;;4976856;28;20211;-65
2024/03/13 03:17:22;;;;;;;4.87;4.03;;;6.40;71.20;;;;;;4972408;28;20264;-64
2024/03/13 03:19:49;;;;;;;4.90;4.40;;;6.50;71.40;;;;;;4968793;28;20209;-65
2024/03/13 03:22:16;;;;;;;4.43;4.03;;;6.50;71.20;;;;;;4969347;28;20226;-65
2024/03/13 03:24:43;;;;;;;4.87;4.20;;;6.50;71.70;;;;;;4977364;28;20217;-66
2024/03/13 03:27:10;;;;;;;4.37;3.97;;;6.60;70.90;;;;;;4968131;28;20223;-66
2024/03/13 03:29:37;;;;;;;3.97;3.67;;;6.60;71.20;;;;;;4976671;28;20562;-64
2024/03/13 03:32:03;;;;;;;4.20;3.80;;;6.60;71.70;;;;;;4974791;28;20704;-66
2024/03/13 03:34:30;;;;;;;3.60;3.30;;;6.60;72.20;;;;;;4965472;28;20213;-65
2024/03/13 03:36:56;;;;;;;3.83;3.50;;;6.60;70.60;;;;;;4975549;28;20209;-64
2024/03/13 03:39:25;;;;;;;4.77;4.27;;;6.50;71.10;;;;;;4975678;28;20209;-64
2024/03/13 03:41:51;;;;;;;4.40;3.70;;;6.50;70.40;;;;;;4968353;28;20312;-65
2024/03/13 03:44:18;;;;;;;3.93;3.43;;;6.50;71.50;;;;;;4971160;28;20201;-65
2024/03/13 03:46:44;;;;;;;4.00;3.50;;;6.60;71.80;;;;;;4972689;28;20209;-64
2024/03/13 03:49:11;;;;;;;4.27;3.80;;;6.50;71.60;;;;;;4973835;28;20215;-64
2024/03/13 03:51:37;;;;;;;5.07;3.60;;;6.50;70.50;;;;;;4962403;28;20239;-64
2024/03/13 03:54:05;;;;;;;3.70;3.40;;;6.50;71.30;;;;;;4975959;28;20212;-65
2024/03/13 03:56:32;;;;;;;4.20;3.80;;;6.40;71.50;;;;;;4976169;28;20667;-65
2024/03/13 03:58:58;;;;;;;3.50;3.20;;;6.40;72.60;;;;;;4976448;28;22420;-65
2024/03/13 04:01:25;;;;;;;3.70;3.40;;;6.50;72.70;;;;;;4971949;28;20234;-65
2024/03/13 04:03:52;;;;;;;4.17;3.77;;;6.50;71.70;;;;;;4976789;28;20213;-64
2024/03/13 04:06:19;;;;;;;3.73;3.43;;;6.50;72.50;;;;;;4970220;28;20249;-65
2024/03/13 04:08:45;;;;;;;3.60;3.30;;;6.50;72.60;;;;;;4976228;28;20272;-65
2024/03/13 04:11:12;;;;;;;3.20;2.90;;;6.50;72.00;;;;;;4976416;28;20214;-65
2024/03/13 04:13:39;;;;;;;2.90;2.70;;;6.50;70.90;;;;;;4973007;28;20280;-65
2024/03/13 04:16:05;;;;;;;3.37;3.07;;;6.50;71.10;;;;;;4974253;28;20209;-65
2024/03/13 04:18:32;;;;;;;2.70;2.50;;;6.50;71.30;;;;;;4965269;28;20208;-64
2024/03/13 04:20:59;;;;;;;3.00;2.80;;;6.40;69.70;;;;;;4973314;28;20208;-64
2024/03/13 04:23:25;;;;;;;2.73;2.53;;;6.40;69.40;;;;;;4969884;28;20205;-64
2024/03/13 04:25:52;;;;;;;2.57;2.37;;;6.40;70.50;;;;;;4975031;28;20208;-64
2024/03/13 04:28:19;;;;;;;2.57;2.37;;;6.40;69.80;;;;;;4975525;28;20197;-65
2024/03/13 04:30:46;;;;;;;2.40;2.20;;;6.40;69.30;;;;;;4975985;28;20208;-64
2024/03/13 04:33:11;;;;;;;2.53;2.40;;;6.40;70.10;;;;;;4972612;28;20268;-64
2024/03/13 04:35:38;;;;;;;2.90;2.70;;;6.50;70.90;;;;;;4969247;28;20209;-65
2024/03/13 04:38:05;;;;;;;2.50;2.30;;;6.40;70.60;;;;;;4975722;28;20208;-65
2024/03/13 04:40:31;;;;;;;2.37;2.27;;;6.50;69.50;;;;;;4970264;28;20216;-65
2024/03/13 04:43:00;;;;;;;2.50;2.30;;;6.40;69.90;;;;;;4968674;28;20236;-65
2024/03/13 04:45:26;;;;;;;2.50;2.30;;;6.30;71.00;;;;;;4974245;28;20256;-63
2024/03/13 04:47:53;;;;;;;2.53;2.40;;;6.40;71.00;;;;;;4975564;28;20230;-65
2024/03/13 04:50:20;;;;;;;2.53;2.33;;;6.30;71.50;;;;;;4975003;28;20214;-64
2024/03/13 04:52:46;;;;;;;2.47;2.27;;;6.30;72.60;;;;;;4963141;28;20631;-64
2024/03/13 04:55:13;;;;;;;2.17;2.07;;;6.40;70.80;;;;;;4968176;28;20572;-65
2024/03/13 04:57:47;;;;;;;2.80;2.60;;;6.40;72.20;;;;;;4966450;28;20575;-65
2024/03/13 05:00:14;;;;;;;2.53;2.40;;;6.40;71.80;;;;;;4972630;28;20231;-64
2024/03/13 05:02:40;;;;;;;2.67;2.47;;;6.40;72.20;;;;;;4974493;28;20629;-64
2024/03/13 05:05:09;;;;;;;2.30;2.20;;;6.40;71.60;;;;;;4969641;28;20229;-64
2024/03/13 05:07:35;;;;;;;3.03;2.50;;;6.30;71.80;;;;;;4973636;28;20209;-65
2024/03/13 05:10:02;;;;;;;2.83;2.63;;;6.30;73.20;;;;;;4974239;28;20211;-65
2024/03/13 05:12:34;;;;;;;2.20;2.10;;;6.20;73.70;;;;;;4974059;28;20237;-65
2024/03/13 05:15:01;;;;;;;2.50;2.30;;;6.20;73.70;;;;;;4968357;28;20295;-64
2024/03/13 05:17:27;;;;;;;2.20;2.10;;;6.20;73.70;;;;;;4964457;28;20217;-65
2024/03/13 05:19:54;;;;;;;2.40;2.30;;;6.30;73.20;;;;;;4969046;28;20216;-65
2024/03/13 05:22:20;;;;;;;2.43;2.23;;;6.20;72.70;;;;;;4974446;28;20229;-64
2024/03/13 05:24:49;;;;;;;2.40;2.20;;;6.10;73.30;;;;;;4965201;28;20213;-63
2024/03/13 05:27:16;;;;;;;2.50;2.30;;;6.10;73.60;;;;;;4974953;28;20223;-63
2024/03/13 05:29:43;;;;;;;2.87;2.67;;;6.00;73.50;;;;;;4973712;28;20267;-64
2024/03/13 05:32:09;;;;;;;2.60;2.40;;;6.20;74.60;;;;;;4967640;28;20236;-63
2024/03/13 05:34:37;;;;;;;2.70;2.50;;;6.10;73.90;;;;;;4972785;28;20213;-65
2024/03/13 05:37:04;;;;;;;2.67;2.47;;;6.20;74.80;;;;;;4977485;28;20611;-65
2024/03/13 05:39:30;;;;;;;2.50;2.30;;;6.20;73.70;;;;;;4970529;28;20223;-64
2024/03/13 05:41:57;;;;;;;3.00;2.80;;;6.20;73.70;;;;;;4977949;28;20238;-65
2024/03/13 05:44:24;;;;;;;2.73;2.53;;;6.20;74.50;;;;;;4977578;28;20248;-65
2024/03/13 05:46:51;;;;;;;2.70;2.50;;;6.20;75.30;;;;;;4978253;28;20665;-65
2024/03/13 05:49:18;;;;;;;2.93;2.73;;;6.10;74.90;;;;;;4968905;28;20288;-65
2024/03/13 05:51:44;;;;;;;3.60;3.30;;;6.10;74.90;;;;;;4973536;28;20236;-65
2024/03/13 05:54:11;;;;;;;3.10;2.90;;;6.10;74.90;;;;;;4974635;28;20201;-64
2024/03/13 05:56:38;;;;;;;2.87;2.67;;;6.20;74.70;;;;;;4976921;28;20884;-64
2024/03/13 05:59:05;;;;;;;3.00;2.80;;;6.20;75.10;;;;;;4976687;28;20217;-65
2024/03/13 06:01:32;;;;;;;3.57;3.27;;;6.20;74.80;;;;;;4969466;28;20229;-65
2024/03/13 06:04:00;;;;;;;4.10;3.40;;;6.10;75.10;;;;;;4972306;28;20733;-65
2024/03/13 06:06:27;;;;;;;3.30;3.00;;;6.10;74.50;;;;;;4965532;28;20268;-65
2024/03/13 06:08:54;;;;;;;3.70;3.40;;;6.20;74.70;;;;;;4976836;28;20211;-64
2024/03/13 06:11:20;;;;;;;3.33;3.03;;;6.20;73.70;;;;;;4972444;28;20253;-66
2024/03/13 06:13:46;;;;;;;3.43;3.13;;;6.10;73.90;;;;;;4974863;28;20267;-65
2024/03/13 06:16:15;;;;;;;4.77;3.27;;;6.20;74.60;;;;;;4977246;28;20698;-65
2024/03/13 06:18:41;;;;;;;3.60;3.30;;;6.20;73.70;;;;;;4976491;28;20213;-66
2024/03/13 06:21:08;;;;;;;3.40;3.10;;;6.30;74.30;;;;;;4964079;28;20206;-65
2024/03/13 06:23:36;;;;;;;3.40;3.10;;;6.30;73.80;;;;;;4972632;28;20218;-65
2024/03/13 06:26:03;;;;;;;4.17;3.77;;;6.30;74.30;;;;;;4976166;28;20696;-65
2024/03/13 06:31:15;;;;;;;3.40;3.10;;;6.30;74.30;;;;;;4976283;28;20209;-66
2024/03/13 06:33:41;;;;;;;4.00;3.57;;;6.40;74.70;;;;;;4975566;28;20227;-65
2024/03/13 06:36:08;;;;;;;4.30;3.47;;;6.40;73.80;;;;;;4961278;28;20740;-65
2024/03/13 06:38:34;;;;;;;3.70;3.40;;;6.30;73.70;;;;;;4974915;28;20669;-65
2024/03/13 06:41:01;;;;;;;3.53;2.90;;;6.40;73.80;;;;;;4969430;28;20215;-65
2024/03/13 06:43:28;;;;;;;3.40;3.03;;;6.50;73.90;;;;;;4974389;28;20209;-65
2024/03/13 06:45:54;;;;;;;3.53;3.20;;;6.50;72.90;;;;;;4967568;28;20239;-65
2024/03/13 06:48:21;;;;;;;3.30;3.00;;;6.50;73.20;;;;;;4964829;28;20271;-65
2024/03/13 06:50:48;;;;;;;3.13;2.80;;;6.60;72.10;;;;;;4977479;28;20221;-65
2024/03/13 06:53:15;;;;;;;3.03;2.70;;;6.70;71.20;;;;;;4969124;28;20230;-66
2024/03/13 06:55:41;;;;;;;2.60;2.40;;;6.60;70.30;;;;;;4970504;28;20214;-65
2024/03/13 06:58:08;;;;;;;2.70;2.50;;;6.70;70.70;;;;;;4970475;28;20252;-65
2024/03/13 07:00:35;;;;;;;2.67;2.47;;;6.50;71.00;;;;;;4970467;28;20214;-67
2024/03/13 07:03:03;;;;;;;4.13;2.30;;;6.50;70.60;;;;;;4973873;28;20222;-65
2024/03/13 07:05:29;;;;;;;2.37;2.17;;;6.50;70.80;;;;;;4971888;28;20216;-66
2024/03/13 07:07:56;;;;;;;3.23;2.50;;;6.50;70.30;;;;;;4968798;28;20235;-66
2024/03/13 07:10:22;;;;;;;2.80;2.60;;;6.50;69.00;;;;;;4972882;28;20217;-68
2024/03/13 07:12:49;;;;;;;4.17;2.70;;;6.70;69.70;;;;;;4960297;28;20233;-64
2024/03/13 07:15:16;;;;;;;2.70;2.50;;;6.70;69.50;;;;;;4949237;28;20245;-65
2024/03/13 07:17:43;;;;;;;2.90;2.60;;;6.60;67.90;;;;;;4986742;28;20210;-65
2024/03/13 07:20:10;;;;;;;2.83;2.63;;;6.60;69.60;;;;;;4988256;28;20220;-64
2024/03/13 07:22:37;;;;;;;3.20;2.90;;;6.60;69.60;;;;;;4988435;28;20270;-64
2024/03/13 07:25:06;;;;;;;2.80;2.60;;;6.60;69.20;;;;;;4995058;28;20711;-64
2024/03/13 07:27:32;;;;;;;2.63;2.53;;;6.70;69.10;;;;;;4986624;28;20276;-65
2024/03/13 07:29:59;;;;;;;2.27;2.17;;;6.80;69.80;;;;;;4990399;28;20213;-64
2024/03/13 07:32:25;;;;;;;2.43;2.33;;;6.90;68.40;;;;;;4989087;28;20229;-64
2024/03/13 07:34:52;;;;;;;2.30;2.10;;;7.10;68.20;;;;;;4991746;28;20260;-63
2024/03/13 07:37:19;;;;;;;2.80;2.60;;;7.40;66.70;;;;;;4993389;28;20229;-65
2024/03/13 07:39:45;;;;;;;2.60;2.40;;;7.40;67.20;;;;;;4981253;28;20563;-65
2024/03/13 07:42:12;;;;;;;2.47;2.27;;;7.40;66.50;;;;;;4990487;28;20234;-64
2024/03/13 07:44:39;;;;;;;2.30;2.10;;;7.50;65.80;;;;;;4995916;28;20221;-64
2024/03/13 07:47:06;;;;;;;2.00;1.90;;;7.30;66.20;;;;;;4993703;28;20585;-64
2024/03/13 07:49:32;;;;;;;3.07;2.40;;;7.40;66.70;;;;;;4993405;28;20206;-64
2024/03/13 07:52:01;;;;;;;2.90;2.40;;;7.30;65.60;;;;;;4994942;28;20236;-64
2024/03/13 07:54:27;;;;;;;2.47;2.30;;;7.20;65.70;;;;;;4992268;28;20231;-64
2024/03/13 07:56:54;;;;;;;2.67;2.47;;;7.30;66.40;;;;;;4987556;28;20218;-64
2024/03/13 07:59:25;;;;;;;2.60;2.40;;;7.30;67.10;;;;;;4991465;28;20221;-64
2024/03/13 08:01:51;;;;;;;2.40;2.30;;;7.30;66.40;;;;;;4983651;28;20531;-64
2024/03/13 08:04:18;;;;;;;2.10;2.00;;;7.50;67.30;;;;;;4992709;28;20242;-64
2024/03/13 08:06:44;;;;;;;2.20;2.00;;;7.70;66.00;;;;;;4987928;28;20215;-64
2024/03/13 08:09:11;;;;;;;2.10;2.00;;;8.00;65.50;;;;;;4989603;28;20212;-64
2024/03/13 08:11:38;;;;;;;2.20;2.00;;;7.90;64.20;;;;;;4974320;28;20229;-65
2024/03/13 08:14:04;;;;;;;1.90;1.80;;;7.70;64.70;;;;;;4986939;28;20231;-65
2024/03/13 08:16:31;;;;;;;2.30;1.70;;;7.50;63.90;;;;;;4978915;28;20215;-63
2024/03/13 08:18:58;;;;;;;2.23;1.90;;;7.40;63.90;;;;;;4984182;28;20221;-65
2024/03/13 08:21:25;;;;;;;15.80;3.63;;;7.60;65.90;;;;;;4976343;28;20227;-65
2024/03/13 08:23:51;;;;;;;3.07;2.40;;;7.70;65.10;;;;;;4989109;28;20680;-65
2024/03/13 08:26:18;;;;;;;5.03;2.20;;;7.90;65.30;;;;;;4987938;28;20718;-64
2024/03/13 08:28:44;;;;;;;23.43;4.77;;;7.90;63.50;;;;;;4985634;28;20229;-69
2024/03/13 08:31:11;;;;;;;36.63;6.73;;;8.10;63.20;;;;;;4979471;28;20218;-64
2024/03/13 08:33:38;;;;;;;9.50;3.17;;;8.10;63.80;;;;;;4984812;28;20583;-64
2024/03/13 08:36:04;;;;;;;2.93;1.70;;;8.30;63.30;;;;;;4983852;28;20692;-64
2024/03/13 08:38:32;;;;;;;17.07;3.97;;;8.20;62.00;;;;;;4991574;28;20219;-64
2024/03/13 08:40:59;;;;;;;10.00;2.50;;;7.90;63.10;;;;;;4995426;28;20215;-64
2024/03/13 08:43:26;;;;;;;1.87;1.77;;;7.90;63.40;;;;;;4993347;28;20662;-65
2024/03/13 08:45:53;;;;;;;1.80;1.70;;;7.90;64.20;;;;;;4982639;28;20561;-65
2024/03/13 08:48:19;;;;;;;40.57;6.57;;;7.70;64.10;;;;;;4978392;28;20246;-64
2024/03/13 08:50:46;;;;;;;11.93;3.87;;;7.90;65.50;;;;;;4990246;28;20207;-64
2024/03/13 08:53:14;;;;;;;3.53;1.83;;;8.00;64.40;;;;;;4991742;28;20234;-65
2024/03/13 08:55:40;;;;;;;7.40;2.20;;;8.00;64.90;;;;;;4986890;28;20268;-64
2024/03/13 08:58:07;;;;;;;2.30;2.10;;;8.00;64.70;;;;;;4981561;28;20227;-64
2024/03/13 09:00:33;;;;;;;2.47;2.23;;;8.20;64.90;;;;;;4966482;28;20220;-64
2024/03/13 09:03:01;;;;;;;8.97;2.90;;;8.20;64.50;;;;;;4959462;28;20234;-64
2024/03/13 09:05:29;;;;;;;2.30;2.10;;;8.00;64.50;;;;;;4953379;28;20229;-68
2024/03/13 09:07:57;;;;;;;7.73;2.37;;;8.10;64.00;;;;;;4972636;28;20216;-67
2024/03/13 09:10:23;;;;;;;3.30;1.90;;;8.10;63.40;;;;;;4979888;28;20215;-67
2024/03/13 09:12:51;;;;;;;19.93;3.90;;;8.40;63.60;;;;;;4951985;28;20251;-68
2024/03/13 09:15:18;;;;;;;8.03;2.30;;;8.50;63.00;;;;;;4979218;28;20239;-66
2024/03/13 09:17:44;;;;;;;1.90;1.80;;;8.40;63.40;;;;;;4960475;28;20594;-69
2024/03/13 09:20:13;;;;;;;132.43;19.57;;;8.50;64.00;;;;;;4952267;28;20218;-69
2024/03/13 09:22:41;;;;;;;9.17;3.97;;;8.60;62.90;;;;;;4954717;28;20663;-67
2024/03/13 09:25:11;;;;;;;1.80;1.70;;;8.80;62.40;;;;;;4955510;28;20655;-66
2024/03/13 09:27:38;;;;;;;1.70;1.60;;;8.80;61.90;;;;;;4965457;28;20794;-71
2024/03/13 09:30:06;;;;;;;1.70;1.60;;;8.90;62.50;;;;;;4959760;28;20262;-70
2024/03/13 09:32:34;;;;;;;1.70;1.60;;;8.90;63.00;;;;;;4954376;28;20251;-68
2024/03/13 09:35:02;;;;;;;2.80;2.00;;;8.90;61.70;;;;;;4957671;28;20259;-65
2024/03/13 09:37:28;;;;;;;1.93;1.83;;;8.80;61.80;;;;;;4971563;28;20208;-66
2024/03/13 09:39:55;;;;;;;1.70;1.60;;;8.70;62.30;;;;;;4969437;28;20216;-65
2024/03/13 09:42:22;;;;;;;4.47;2.20;;;8.70;63.00;;;;;;4955638;28;20354;-66
2024/03/13 09:44:50;;;;;;;4.80;1.90;;;8.50;62.50;;;;;;4960593;28;20802;-66
2024/03/13 09:47:17;;;;;;;1.60;1.50;;;8.60;62.20;;;;;;4956198;28;20216;-66
2024/03/13 09:49:44;;;;;;;98.47;15.33;;;8.60;63.00;;;;;;4959097;28;20963;-66
2024/03/13 09:52:12;;;;;;;26.50;5.20;;;8.60;63.40;;;;;;4966054;28;20683;-66
2024/03/13 09:54:39;;;;;;;4.13;1.60;;;8.70;63.40;;;;;;4975306;28;20466;-66
2024/03/13 09:57:06;;;;;;;1.67;1.57;;;8.70;63.00;;;;;;4952801;28;20207;-66
2024/03/13 09:59:32;;;;;;;1.70;1.60;;;8.70;62.30;;;;;;4963183;28;20230;-65
2024/03/13 10:01:59;;;;;;;1.60;1.50;;;8.80;63.10;;;;;;4954940;28;20658;-65
2024/03/13 10:04:26;;;;;;;1.73;1.63;;;8.70;62.70;;;;;;4953147;28;20204;-66
2024/03/13 10:06:53;;;;;;;1.90;1.40;;;8.80;63.90;;;;;;4952298;28;20213;-66
2024/03/13 10:09:23;;;;;;;2.10;1.90;;;8.80;63.30;;;;;;4956507;28;20222;-66
2024/03/13 10:11:49;;;;;;;2.27;1.50;;;8.90;64.30;;;;;;4953344;28;22799;-66
2024/03/13 10:14:16;;;;;;;1.70;1.60;;;8.90;62.50;;;;;;4956690;28;20222;-66
2024/03/13 10:16:43;;;;;;;2.00;1.50;;;8.90;62.50;;;;;;4963536;28;20327;-66
2024/03/13 10:19:10;;;;;;;1.60;1.50;;;9.00;63.30;;;;;;4960633;28;20224;-66
2024/03/13 10:21:37;;;;;;;1.60;1.50;;;9.10;62.00;;;;;;4960692;28;20721;-66
2024/03/13 10:24:04;;;;;;;1.93;1.73;;;9.10;62.30;;;;;;4961908;28;20215;-66
2024/03/13 10:26:31;;;;;;;1.77;1.50;;;9.30;63.00;;;;;;4967490;28;20242;-66
2024/03/13 10:28:58;;;;;;;1.60;1.50;;;9.60;62.30;;;;;;4986463;28;20581;-66
2024/03/13 10:31:24;;;;;;;1.60;1.50;;;9.80;61.20;;;;;;4979758;28;20267;-64
2024/03/13 10:33:54;;;;;;;1.50;1.40;;;10.20;58.10;;;;;;4961715;28;20643;-65
2024/03/13 10:36:21;;;;;;;1.30;1.30;;;10.20;58.70;;;;;;4958410;28;20298;-66
2024/03/13 10:38:48;;;;;;;2.87;1.83;;;10.10;58.60;;;;;;4962149;28;20204;-65
2024/03/13 10:41:15;;;;;;;1.70;1.60;;;9.90;58.80;;;;;;4962434;28;20214;-65
2024/03/13 10:43:42;;;;;;;2.10;1.90;;;10.00;58.50;;;;;;4958615;28;20198;-65
2024/03/13 10:46:08;;;;;;;1.90;1.80;;;9.80;59.10;;;;;;4967994;28;20685;-65
2024/03/13 10:48:35;;;;;;;2.10;1.90;;;9.90;60.60;;;;;;4965797;28;20839;-65
2024/03/13 10:51:03;;;;;;;53.30;7.50;;;10.00;59.50;;;;;;4961660;28;20217;-65
2024/03/13 10:53:30;;;;;;;5.20;2.57;;;10.10;58.40;;;;;;4961926;28;20346;-65
2024/03/13 10:55:57;;;;;;;3.70;1.70;;;10.20;58.30;;;;;;4958515;28;20211;-65
2024/03/13 10:58:23;;;;;;;1.57;1.47;;;10.10;58.00;;;;;;4958265;28;20346;-66
2024/03/13 11:00:50;;;;;;;1.40;1.30;;;10.20;58.70;;;;;;4960779;28;20222;-66
2024/03/13 11:03:17;;;;;;;1.63;1.37;;;10.30;58.20;;;;;;4957174;28;20237;-66
2024/03/13 11:05:44;;;;;;;1.50;1.40;;;10.10;58.70;;;;;;4962398;28;20222;-66
2024/03/13 11:08:10;;;;;;;27.20;5.33;;;9.90;61.30;;;;;;4960719;28;20222;-66
2024/03/13 11:10:37;;;;;;;12.17;3.80;;;10.00;61.00;;;;;;4959603;28;20779;-66
2024/03/13 11:13:04;;;;;;;2.93;2.63;;;10.00;63.50;;;;;;4960298;28;20230;-65
2024/03/13 11:15:31;;;;;;;3.70;1.80;;;9.90;65.10;;;;;;4979007;28;20236;-66
2024/03/13 11:17:59;;;;;;;13.97;2.90;;;9.80;65.80;;;;;;4962273;28;20209;-66
2024/03/13 11:20:26;;;;;;;9.17;2.40;;;9.90;65.20;;;;;;4958741;28;20217;-66
2024/03/13 11:22:53;;;;;;;5.73;2.40;;;10.10;63.40;;;;;;4958003;28;20577;-65
2024/03/13 11:25:20;;;;;;;3.17;1.43;;;10.20;63.50;;;;;;4954360;28;20205;-66
2024/03/13 11:27:47;;;;;;;2.30;1.50;;;10.30;63.50;;;;;;4982043;28;20597;-65
2024/03/13 11:30:14;;;;;;;1.50;1.40;;;10.30;64.50;;;;;;4959257;28;20224;-67
2024/03/13 11:32:40;;;;;;;1.30;1.27;;;10.20;63.80;;;;;;4966451;28;20261;-66
2024/03/13 11:35:07;;;;;;;2.80;1.90;;;10.30;64.30;;;;;;4956928;28;20230;-67
2024/03/13 11:37:34;;;;;;;2.03;1.50;;;10.10;63.80;;;;;;4956968;28;20211;-66
2024/03/13 11:40:03;;;;;;;2.50;1.30;;;10.00;64.10;;;;;;4953287;28;20209;-66
2024/03/13 11:42:29;;;;;;;1.20;1.10;;;9.90;65.90;;;;;;4956216;28;20353;-66
2024/03/13 11:44:56;;;;;;;1.60;1.50;;;10.00;65.00;;;;;;4955595;28;20792;-66
2024/03/13 11:47:26;;;;;;;1.70;1.60;;;10.00;66.20;;;;;;4964203;28;20209;-67
2024/03/13 11:49:53;;;;;;;1.73;1.57;;;10.00;67.00;;;;;;4956372;28;20289;-67
2024/03/13 11:52:22;;;;;;;1.67;1.50;;;9.90;67.10;;;;;;4955922;28;20230;-67
2024/03/13 11:54:49;;;;;;;26.73;5.07;;;10.00;66.70;;;;;;4957182;28;20291;-68
2024/03/13 11:57:17;;;;;;;50.63;8.93;;;10.10;66.20;;;;;;4958139;28;20218;-67
2024/03/13 11:59:43;;;;;;;25.23;5.77;;;10.20;64.80;;;;;;4969408;28;20568;-68
2024/03/13 12:02:10;;;;;;;1.40;1.30;;;10.20;65.20;;;;;;4960380;28;20607;-68
2024/03/13 12:04:36;;;;;;;33.00;6.40;;;10.10;64.50;;;;;;4957057;28;20207;-67
2024/03/13 12:07:03;;;;;;;4.77;1.90;;;10.20;65.00;;;;;;4952697;28;20277;-67
2024/03/13 12:09:30;;;;;;;1.73;1.53;;;10.20;65.10;;;;;;4955779;28;20229;-67
2024/03/13 12:11:57;;;;;;;2.03;1.73;;;10.10;64.40;;;;;;4957043;28;20703;-66
2024/03/13 12:14:23;;;;;;;2.87;1.70;;;10.20;65.10;;;;;;4959441;28;20674;-66
2024/03/13 12:16:50;;;;;;;2.37;1.50;;;10.10;64.50;;;;;;4965722;28;20209;-66
2024/03/13 12:19:17;;;;;;;1.70;1.60;;;10.10;64.80;;;;;;4964121;28;20953;-68
2024/03/13 12:21:43;;;;;;;1.53;1.43;;;10.10;64.40;;;;;;4956473;28;20236;-67
2024/03/13 12:24:11;;;;;;;1.40;1.40;;;10.10;64.70;;;;;;4956273;28;20209;-68
2024/03/13 12:26:38;;;;;;;1.63;1.53;;;10.10;65.80;;;;;;4955758;28;20236;-65
2024/03/13 12:29:04;;;;;;;1.50;1.40;;;10.30;64.80;;;;;;4960197;28;20217;-67
2024/03/13 12:31:31;;;;;;;1.50;1.40;;;10.50;66.40;;;;;;4954775;28;20229;-67
2024/03/13 12:33:58;;;;;;;1.83;1.73;;;10.50;63.60;;;;;;4962172;28;20226;-68
2024/03/13 12:36:27;;;;;;;1.90;1.60;;;10.50;63.50;;;;;;4956173;28;21001;-68
2024/03/13 12:38:54;;;;;;;1.40;1.40;;;10.60;63.80;;;;;;4951084;28;20215;-67
2024/03/13 12:41:21;;;;;;;1.73;1.40;;;10.50;63.50;;;;;;4955222;28;20558;-68
2024/03/13 12:43:47;;;;;;;1.70;1.60;;;10.40;64.10;;;;;;4955344;28;20207;-67
2024/03/13 12:46:15;;;;;;;1.77;1.67;;;10.30;63.90;;;;;;4955688;28;20606;-68
2024/03/13 12:48:42;;;;;;;1.60;1.50;;;10.30;64.80;;;;;;4964504;28;20209;-67
2024/03/13 12:51:08;;;;;;;1.80;1.70;;;10.40;65.20;;;;;;4968985;28;20209;-67
2024/03/13 12:53:36;;;;;;;1.80;1.70;;;10.50;65.30;;;;;;4957445;28;20793;-67
2024/03/13 12:56:05;;;;;;;1.83;1.73;;;10.40;65.40;;;;;;4952687;28;22307;-66
2024/03/13 12:58:32;;;;;;;1.63;1.53;;;10.30;65.50;;;;;;4956736;28;20258;-67
2024/03/13 13:00:58;;;;;;;1.50;1.40;;;10.30;66.20;;;;;;4955224;28;20218;-67
2024/03/13 13:03:25;;;;;;;1.50;1.40;;;10.60;65.90;;;;;;4952770;28;20213;-68
2024/03/13 13:05:52;;;;;;;1.97;1.70;;;10.90;64.60;;;;;;4968270;28;20222;-69
2024/03/13 13:08:21;;;;;;;1.70;1.60;;;10.90;65.20;;;;;;4957014;28;20210;-67
2024/03/13 13:10:48;;;;;;;2.07;1.87;;;10.80;64.40;;;;;;4954794;28;20813;-67
2024/03/13 13:13:15;;;;;;;2.00;1.80;;;11.30;63.00;;;;;;4961415;28;20235;-67
2024/03/13 13:15:42;;;;;;;1.60;1.50;;;12.20;59.70;;;;;;4969717;28;20596;-67